Vasa, Minnesota
Current Conditions -  °F | °C
As of 11:31 AM on Monday 22 Dec 2014 (Local Time) from KRGK Reporting Station
Drizzle Drizzle  
Wind Chill: 27°   Ceiling: 1200
Heat Index: 36°   Visibility: 2mi
Dew Point: 36°   Wind: 13mph
Humidity: 100%   Direction: 130°SE
Pressure: 29.65"   Gusts: NA
Location:  44.6055°N, 92.7163°W
Report Text: KRGK 221731Z AUTO 13011KT 2SM DZ OVC012 02/02 A2965 RMK AO2
Loading
Personal Weather Stations






























Interactive Weather Map New forecast layout! Learn more

10-Day Weather Forecast

Advertisements
Track Severe Weather on mobile